Terminal Aerodrome Forecast
Issued by NWS

Home | Current Version | Previous Version | Text Only | Print | Product List | Glossary On
Versions: 1 2 3 4 5 6 7 8 9 10 11 12 13 14 15
000
FTUS45 KTFX 192300
TAFGTF
TAF
KGTF 192330Z 2000/2024 24015G25KT P6SM SCT200
     FM200700 26020G30KT P6SM SCT080 BKN120
     FM201400 24030G40KT P6SM FEW200=

USA.gov is the U.S. government's official web portal to all federal, state and local government web resources and services.